sensor_id;sensor_type;location;lat;lon;timestamp;pressure;altitude;pressure_sealevel;temperature;humidity
18275;BME280;19470;49.322;7.218;2023-02-19T00:01:32;99304.59;;;12.72;100.00
18275;BME280;19470;49.322;7.218;2023-02-19T00:04:01;99295.94;;;13.27;100.00
18275;BME280;19470;49.322;7.218;2023-02-19T00:06:29;99291.00;;;12.86;100.00
18275;BME280;19470;49.322;7.218;2023-02-19T00:08:56;99306.69;;;13.21;100.00
18275;BME280;19470;49.322;7.218;2023-02-19T00:11:24;99304.94;;;13.10;100.00
18275;BME280;19470;49.322;7.218;2023-02-19T00:13:52;99305.66;;;12.71;100.00
18275;BME280;19470;49.322;7.218;2023-02-19T00:16:22;99278.44;;;12.98;100.00
18275;BME280;19470;49.322;7.218;2023-02-19T00:18:50;99291.22;;;13.51;100.00
18275;BME280;19470;49.322;7.218;2023-02-19T00:21:18;99282.06;;;13.09;100.00
18275;BME280;19470;49.322;7.218;2023-02-19T00:23:48;99284.13;;;12.56;100.00
18275;BME280;19470;49.322;7.218;2023-02-19T00:26:15;99297.63;;;13.00;100.00
18275;BME280;19470;49.322;7.218;2023-02-19T00:28:41;99295.66;;;12.78;100.00
18275;BME280;19470;49.322;7.218;2023-02-19T00:31:09;99280.69;;;12.72;100.00
18275;BME280;19470;49.322;7.218;2023-02-19T00:33:40;99285.66;;;12.69;100.00
18275;BME280;19470;49.322;7.218;2023-02-19T00:36:08;99291.47;;;12.66;100.00
18275;BME280;19470;49.322;7.218;2023-02-19T00:38:35;99284.66;;;13.03;100.00
18275;BME280;19470;49.322;7.218;2023-02-19T00:41:03;99285.34;;;12.65;100.00
18275;BME280;19470;49.322;7.218;2023-02-19T00:43:43;99286.44;;;13.32;100.00
18275;BME280;19470;49.322;7.218;2023-02-19T00:46:10;99292.63;;;13.03;100.00
18275;BME280;19470;49.322;7.218;2023-02-19T00:48:36;99281.81;;;12.93;100.00
18275;BME280;19470;49.322;7.218;2023-02-19T00:51:03;99293.88;;;12.67;100.00
18275;BME280;19470;49.322;7.218;2023-02-19T00:53:31;99283.75;;;13.15;100.00
18275;BME280;19470;49.322;7.218;2023-02-19T00:55:57;99309.03;;;12.84;100.00
18275;BME280;19470;49.322;7.218;2023-02-19T00:58:24;99307.28;;;12.89;100.00
18275;BME280;19470;49.322;7.218;2023-02-19T01:00:50;99307.91;;;12.79;100.00
18275;BME280;19470;49.322;7.218;2023-02-19T01:03:17;99322.19;;;13.07;100.00
18275;BME280;19470;49.322;7.218;2023-02-19T01:05:43;99300.91;;;13.07;100.00
18275;BME280;19470;49.322;7.218;2023-02-19T01:08:09;99306.16;;;13.02;100.00
18275;BME280;19470;49.322;7.218;2023-02-19T01:10:37;99270.28;;;13.21;100.00
18275;BME280;19470;49.322;7.218;2023-02-19T01:13:04;99262.47;;;13.15;100.00
18275;BME280;19470;49.322;7.218;2023-02-19T01:15:31;99254.34;;;12.54;100.00
18275;BME280;19470;49.322;7.218;2023-02-19T01:17:58;99252.28;;;12.90;100.00
18275;BME280;19470;49.322;7.218;2023-02-19T01:20:24;99266.84;;;12.25;100.00
18275;BME280;19470;49.322;7.218;2023-02-19T01:22:51;99268.59;;;12.65;100.00
18275;BME280;19470;49.322;7.218;2023-02-19T01:25:18;99272.69;;;12.39;100.00
18275;BME280;19470;49.322;7.218;2023-02-19T01:27:46;99269.44;;;12.08;100.00
18275;BME280;19470;49.322;7.218;2023-02-19T01:30:12;99278.66;;;12.79;100.00
18275;BME280;19470;49.322;7.218;2023-02-19T01:32:39;99282.50;;;12.38;100.00
18275;BME280;19470;49.322;7.218;2023-02-19T01:35:06;99273.06;;;12.31;100.00
18275;BME280;19470;49.322;7.218;2023-02-19T01:37:32;99273.25;;;12.74;100.00
18275;BME280;19470;49.322;7.218;2023-02-19T01:39:59;99274.66;;;12.94;100.00
18275;BME280;19470;49.322;7.218;2023-02-19T01:42:25;99272.16;;;13.04;100.00
18275;BME280;19470;49.322;7.218;2023-02-19T01:45:27;99272.78;;;12.77;100.00
18275;BME280;19470;49.322;7.218;2023-02-19T01:48:07;99284.69;;;12.58;100.00
18275;BME280;19470;49.322;7.218;2023-02-19T01:50:37;99279.97;;;13.11;100.00
18275;BME280;19470;49.322;7.218;2023-02-19T01:53:08;99267.78;;;12.64;100.00
18275;BME280;19470;49.322;7.218;2023-02-19T01:55:37;99258.69;;;12.60;100.00
18275;BME280;19470;49.322;7.218;2023-02-19T01:58:04;99259.19;;;12.57;100.00
18275;BME280;19470;49.322;7.218;2023-02-19T02:00:33;99268.59;;;12.65;100.00
18275;BME280;19470;49.322;7.218;2023-02-19T02:02:59;99250.38;;;12.40;100.00
18275;BME280;19470;49.322;7.218;2023-02-19T02:05:36;99251.34;;;12.84;100.00
18275;BME280;19470;49.322;7.218;2023-02-19T02:08:06;99253.63;;;13.09;100.00
18275;BME280;19470;49.322;7.218;2023-02-19T02:10:51;99259.25;;;12.62;100.00
18275;BME280;19470;49.322;7.218;2023-02-19T02:13:18;99248.63;;;12.62;100.00
18275;BME280;19470;49.322;7.218;2023-02-19T02:15:51;99236.56;;;12.71;100.00
18275;BME280;19470;49.322;7.218;2023-02-19T02:18:28;99256.16;;;12.37;100.00
18275;BME280;19470;49.322;7.218;2023-02-19T02:24:11;99230.28;;;12.94;100.00
18275;BME280;19470;49.322;7.218;2023-02-19T02:27:05;99230.41;;;12.88;100.00
18275;BME280;19470;49.322;7.218;2023-02-19T02:30:05;99224.63;;;12.40;100.00
18275;BME280;19470;49.322;7.218;2023-02-19T02:32:39;99220.78;;;12.48;100.00
18275;BME280;19470;49.322;7.218;2023-02-19T02:35:19;99214.22;;;13.06;100.00
18275;BME280;19470;49.322;7.218;2023-02-19T02:37:47;99217.53;;;12.46;100.00
18275;BME280;19470;49.322;7.218;2023-02-19T02:40:15;99215.94;;;12.78;100.00
18275;BME280;19470;49.322;7.218;2023-02-19T02:42:43;99208.44;;;12.59;100.00
18275;BME280;19470;49.322;7.218;2023-02-19T02:45:27;99208.84;;;12.67;100.00
18275;BME280;19470;49.322;7.218;2023-02-19T02:48:33;99206.34;;;12.94;100.00
18275;BME280;19470;49.322;7.218;2023-02-19T02:51:06;99221.94;;;13.08;100.00
18275;BME280;19470;49.322;7.218;2023-02-19T02:53:37;99225.13;;;12.54;100.00
18275;BME280;19470;49.322;7.218;2023-02-19T02:56:25;99231.63;;;12.30;100.00
18275;BME280;19470;49.322;7.218;2023-02-19T02:58:53;99225.50;;;12.46;100.00
18275;BME280;19470;49.322;7.218;2023-02-19T03:01:25;99214.97;;;12.85;100.00
18275;BME280;19470;49.322;7.218;2023-02-19T03:04:14;99213.63;;;13.21;100.00
18275;BME280;19470;49.322;7.218;2023-02-19T03:06:41;99224.13;;;12.60;100.00
18275;BME280;19470;49.322;7.218;2023-02-19T03:09:11;99211.59;;;12.72;100.00
18275;BME280;19470;49.322;7.218;2023-02-19T03:11:42;99191.38;;;12.54;100.00
18275;BME280;19470;49.322;7.218;2023-02-19T03:14:32;99210.78;;;12.55;100.00
18275;BME280;19470;49.322;7.218;2023-02-19T03:17:23;99193.78;;;12.56;100.00
18275;BME280;19470;49.322;7.218;2023-02-19T03:20:13;99205.06;;;12.63;100.00
18275;BME280;19470;49.322;7.218;2023-02-19T03:22:43;99209.66;;;12.85;100.00
18275;BME280;19470;49.322;7.218;2023-02-19T03:25:12;99200.25;;;13.16;100.00
18275;BME280;19470;49.322;7.218;2023-02-19T03:28:14;99221.09;;;12.51;100.00
18275;BME280;19470;49.322;7.218;2023-02-19T03:30:46;99214.41;;;12.83;100.00
18275;BME280;19470;49.322;7.218;2023-02-19T03:33:17;99202.41;;;12.80;100.00
18275;BME280;19470;49.322;7.218;2023-02-19T03:35:48;99213.00;;;12.97;100.00
18275;BME280;19470;49.322;7.218;2023-02-19T03:38:19;99207.78;;;13.02;100.00
18275;BME280;19470;49.322;7.218;2023-02-19T03:40:53;99188.81;;;12.43;100.00
18275;BME280;19470;49.322;7.218;2023-02-19T03:43:26;99224.06;;;12.72;100.00
18275;BME280;19470;49.322;7.218;2023-02-19T03:46:04;99212.00;;;12.81;100.00
18275;BME280;19470;49.322;7.218;2023-02-19T03:48:35;99215.28;;;13.05;100.00
18275;BME280;19470;49.322;7.218;2023-02-19T03:51:26;99211.34;;;13.46;100.00
18275;BME280;19470;49.322;7.218;2023-02-19T03:54:02;99225.28;;;12.64;100.00
18275;BME280;19470;49.322;7.218;2023-02-19T03:56:36;99214.22;;;13.06;100.00
18275;BME280;19470;49.322;7.218;2023-02-19T03:59:09;99202.06;;;12.93;100.00
18275;BME280;19470;49.322;7.218;2023-02-19T04:01:40;99215.72;;;13.19;100.00
18275;BME280;19470;49.322;7.218;2023-02-19T04:04:14;99220.28;;;12.68;100.00
18275;BME280;19470;49.322;7.218;2023-02-19T04:06:43;99208.69;;;12.91;100.00
18275;BME280;19470;49.322;7.218;2023-02-19T04:09:13;99219.16;;;12.47;100.00
18275;BME280;19470;49.322;7.218;2023-02-19T04:11:41;99216.59;;;12.86;100.00
18275;BME280;19470;49.322;7.218;2023-02-19T04:14:11;99220.78;;;12.48;100.00
18275;BME280;19470;49.322;7.218;2023-02-19T04:16:43;99216.56;;;12.69;100.00
18275;BME280;19470;49.322;7.218;2023-02-19T04:19:16;99224.34;;;12.70;100.00
18275;BME280;19470;49.322;7.218;2023-02-19T04:21:45;99227.22;;;12.52;100.00
18275;BME280;19470;49.322;7.218;2023-02-19T04:24:15;99220.75;;;12.65;100.00
18275;BME280;19470;49.322;7.218;2023-02-19T04:26:44;99238.63;;;12.69;100.00
18275;BME280;19470;49.322;7.218;2023-02-19T04:29:11;99235.16;;;13.19;100.00
18275;BME280;19470;49.322;7.218;2023-02-19T04:31:37;99238.31;;;12.49;100.00
18275;BME280;19470;49.322;7.218;2023-02-19T04:34:04;99232.53;;;12.86;100.00
18275;BME280;19470;49.322;7.218;2023-02-19T04:36:32;99237.44;;;12.60;100.00
18275;BME280;19470;49.322;7.218;2023-02-19T04:38:59;99248.31;;;12.92;100.00
18275;BME280;19470;49.322;7.218;2023-02-19T04:41:25;99244.84;;;13.09;100.00
18275;BME280;19470;49.322;7.218;2023-02-19T04:43:52;99237.59;;;13.04;100.00
18275;BME280;19470;49.322;7.218;2023-02-19T04:46:18;99244.03;;;13.08;100.00
18275;BME280;19470;49.322;7.218;2023-02-19T04:48:45;99248.16;;;12.99;100.00
18275;BME280;19470;49.322;7.218;2023-02-19T04:51:11;99239.66;;;13.19;100.00
18275;BME280;19470;49.322;7.218;2023-02-19T04:53:39;99244.75;;;12.70;100.00
18275;BME280;19470;49.322;7.218;2023-02-19T04:56:07;99251.78;;;13.48;100.00
18275;BME280;19470;49.322;7.218;2023-02-19T04:58:34;99260.41;;;12.66;100.00
18275;BME280;19470;49.322;7.218;2023-02-19T05:01:01;99255.31;;;12.82;100.00
18275;BME280;19470;49.322;7.218;2023-02-19T05:03:28;99259.03;;;13.53;100.00
18275;BME280;19470;49.322;7.218;2023-02-19T05:05:54;99266.19;;;12.97;100.00
18275;BME280;19470;49.322;7.218;2023-02-19T05:08:21;99263.13;;;13.05;100.00
18275;BME280;19470;49.322;7.218;2023-02-19T05:10:49;99274.16;;;13.14;100.00
18275;BME280;19470;49.322;7.218;2023-02-19T05:13:15;99266.69;;;12.77;100.00
18275;BME280;19470;49.322;7.218;2023-02-19T05:15:42;99285.78;;;12.91;100.00
18275;BME280;19470;49.322;7.218;2023-02-19T05:18:18;99266.41;;;13.12;100.00
18275;BME280;19470;49.322;7.218;2023-02-19T05:20:45;99279.00;;;12.66;100.00
18275;BME280;19470;49.322;7.218;2023-02-19T05:23:11;99285.69;;;13.19;100.00
18275;BME280;19470;49.322;7.218;2023-02-19T05:25:38;99285.91;;;13.51;100.00
18275;BME280;19470;49.322;7.218;2023-02-19T05:28:06;99295.47;;;13.69;100.00
18275;BME280;19470;49.322;7.218;2023-02-19T05:30:42;99289.69;;;13.55;100.00
18275;BME280;19470;49.322;7.218;2023-02-19T05:33:08;99295.84;;;13.05;100.00
18275;BME280;19470;49.322;7.218;2023-02-19T05:35:40;99293.50;;;12.92;100.00
18275;BME280;19470;49.322;7.218;2023-02-19T05:38:06;99289.31;;;13.13;100.00
18275;BME280;19470;49.322;7.218;2023-02-19T05:40:33;99299.16;;;13.29;100.00
18275;BME280;19470;49.322;7.218;2023-02-19T05:43:00;99300.81;;;13.36;100.00
18275;BME280;19470;49.322;7.218;2023-02-19T05:45:27;99297.78;;;13.10;100.00
18275;BME280;19470;49.322;7.218;2023-02-19T05:47:54;99318.84;;;13.67;100.00
18275;BME280;19470;49.322;7.218;2023-02-19T05:50:21;99311.88;;;12.94;100.00
18275;BME280;19470;49.322;7.218;2023-02-19T05:52:47;99312.81;;;13.21;100.00
18275;BME280;19470;49.322;7.218;2023-02-19T05:55:14;99326.69;;;13.07;100.00
18275;BME280;19470;49.322;7.218;2023-02-19T05:57:40;99328.44;;;12.67;100.00
18275;BME280;19470;49.322;7.218;2023-02-19T06:00:08;99332.16;;;12.38;100.00
18275;BME280;19470;49.322;7.218;2023-02-19T06:02:36;99333.25;;;13.33;100.00
18275;BME280;19470;49.322;7.218;2023-02-19T06:05:03;99328.06;;;12.75;100.00
18275;BME280;19470;49.322;7.218;2023-02-19T06:07:30;99328.88;;;13.10;100.00
18275;BME280;19470;49.322;7.218;2023-02-19T06:09:57;99330.38;;;12.89;100.00
18275;BME280;19470;49.322;7.218;2023-02-19T06:12:23;99321.94;;;12.92;100.00
18275;BME280;19470;49.322;7.218;2023-02-19T06:14:50;99326.44;;;12.91;100.00
18275;BME280;19470;49.322;7.218;2023-02-19T06:17:16;99327.56;;;13.12;100.00
18275;BME280;19470;49.322;7.218;2023-02-19T06:19:44;99330.50;;;12.65;100.00
18275;BME280;19470;49.322;7.218;2023-02-19T06:22:12;99315.31;;;12.77;100.00
18275;BME280;19470;49.322;7.218;2023-02-19T06:24:39;99331.06;;;13.29;100.00
18275;BME280;19470;49.322;7.218;2023-02-19T06:27:06;99332.78;;;12.73;100.00
18275;BME280;19470;49.322;7.218;2023-02-19T06:29:33;99341.59;;;13.08;100.00
18275;BME280;19470;49.322;7.218;2023-02-19T06:32:02;99342.72;;;12.95;100.00
18275;BME280;19470;49.322;7.218;2023-02-19T06:34:29;99340.88;;;13.12;100.00
18275;BME280;19470;49.322;7.218;2023-02-19T06:36:58;99337.91;;;13.25;100.00
18275;BME280;19470;49.322;7.218;2023-02-19T06:39:25;99329.66;;;12.76;100.00
18275;BME280;19470;49.322;7.218;2023-02-19T06:41:53;99341.75;;;12.56;100.00
18275;BME280;19470;49.322;7.218;2023-02-19T06:44:20;99363.69;;;13.08;100.00
18275;BME280;19470;49.322;7.218;2023-02-19T06:46:47;99339.41;;;12.88;100.00
18275;BME280;19470;49.322;7.218;2023-02-19T06:49:13;99354.56;;;12.87;100.00
18275;BME280;19470;49.322;7.218;2023-02-19T06:51:40;99348.56;;;12.63;100.00
18275;BME280;19470;49.322;7.218;2023-02-19T06:54:08;99366.06;;;13.38;100.00
18275;BME280;19470;49.322;7.218;2023-02-19T06:56:36;99359.88;;;12.70;100.00
18275;BME280;19470;49.322;7.218;2023-02-19T06:59:06;99368.31;;;12.27;100.00
18275;BME280;19470;49.322;7.218;2023-02-19T07:01:34;99372.06;;;13.17;100.00
18275;BME280;19470;49.322;7.218;2023-02-19T07:04:01;99377.38;;;13.00;100.00
18275;BME280;19470;49.322;7.218;2023-02-19T07:06:28;99381.06;;;13.27;100.00
18275;BME280;19470;49.322;7.218;2023-02-19T07:08:56;99383.94;;;13.60;100.00
18275;BME280;19470;49.322;7.218;2023-02-19T07:11:26;99390.66;;;13.28;100.00
18275;BME280;19470;49.322;7.218;2023-02-19T07:13:54;99405.81;;;13.16;100.00
18275;BME280;19470;49.322;7.218;2023-02-19T07:16:21;99399.81;;;13.71;100.00
18275;BME280;19470;49.322;7.218;2023-02-19T07:18:47;99404.78;;;13.17;100.00
18275;BME280;19470;49.322;7.218;2023-02-19T07:21:15;99408.47;;;13.28;100.00
18275;BME280;19470;49.322;7.218;2023-02-19T07:23:42;99415.59;;;13.11;100.00
18275;BME280;19470;49.322;7.218;2023-02-19T07:26:10;99414.19;;;13.37;100.00
18275;BME280;19470;49.322;7.218;2023-02-19T07:28:39;99414.53;;;13.96;100.00
18275;BME280;19470;49.322;7.218;2023-02-19T07:31:05;99405.97;;;13.55;100.00
18275;BME280;19470;49.322;7.218;2023-02-19T07:33:32;99419.00;;;13.40;100.00
18275;BME280;19470;49.322;7.218;2023-02-19T07:35:58;99423.16;;;14.03;100.00
18275;BME280;19470;49.322;7.218;2023-02-19T07:38:25;99412.72;;;13.79;100.00
18275;BME280;19470;49.322;7.218;2023-02-19T07:40:53;99427.88;;;13.28;100.00
18275;BME280;19470;49.322;7.218;2023-02-19T07:43:20;99420.63;;;13.24;100.00
18275;BME280;19470;49.322;7.218;2023-02-19T07:45:49;99426.19;;;13.22;100.00
18275;BME280;19470;49.322;7.218;2023-02-19T07:48:16;99426.34;;;13.66;100.00
18275;BME280;19470;49.322;7.218;2023-02-19T07:50:49;99439.34;;;13.79;100.00
18275;BME280;19470;49.322;7.218;2023-02-19T07:53:16;99439.66;;;13.33;100.00
18275;BME280;19470;49.322;7.218;2023-02-19T07:55:42;99445.38;;;13.24;100.00
18275;BME280;19470;49.322;7.218;2023-02-19T07:58:09;99437.09;;;13.09;100.00
18275;BME280;19470;49.322;7.218;2023-02-19T08:00:35;99451.94;;;12.93;100.00
18275;BME280;19470;49.322;7.218;2023-02-19T08:03:03;99439.75;;;13.09;100.00
18275;BME280;19470;49.322;7.218;2023-02-19T08:05:30;99441.09;;;13.91;100.00
18275;BME280;19470;49.322;7.218;2023-02-19T08:11:19;99450.00;;;13.46;100.00
18275;BME280;19470;49.322;7.218;2023-02-19T08:14:02;99464.03;;;13.13;100.00
18275;BME280;19470;49.322;7.218;2023-02-19T08:16:29;99462.88;;;13.37;100.00
18275;BME280;19470;49.322;7.218;2023-02-19T08:18:57;99460.78;;;13.73;100.00
18275;BME280;19470;49.322;7.218;2023-02-19T08:21:23;99467.41;;;13.53;100.00
18275;BME280;19470;49.322;7.218;2023-02-19T08:23:50;99468.78;;;13.56;100.00
18275;BME280;19470;49.322;7.218;2023-02-19T08:26:17;99474.09;;;13.56;100.00
18275;BME280;19470;49.322;7.218;2023-02-19T08:28:43;99484.25;;;13.59;100.00
18275;BME280;19470;49.322;7.218;2023-02-19T08:31:10;99483.38;;;13.08;100.00
18275;BME280;19470;49.322;7.218;2023-02-19T08:33:37;99483.88;;;13.22;100.00
18275;BME280;19470;49.322;7.218;2023-02-19T08:36:07;99491.91;;;13.39;100.00
18275;BME280;19470;49.322;7.218;2023-02-19T08:38:35;99491.13;;;13.55;100.00
18275;BME280;19470;49.322;7.218;2023-02-19T08:41:05;99478.69;;;13.94;100.00
18275;BME280;19470;49.322;7.218;2023-02-19T08:43:32;99489.25;;;13.39;100.00
18275;BME280;19470;49.322;7.218;2023-02-19T08:45:58;99492.38;;;13.36;100.00
18275;BME280;19470;49.322;7.218;2023-02-19T08:48:25;99479.97;;;13.92;100.00
18275;BME280;19470;49.322;7.218;2023-02-19T08:50:54;99498.22;;;13.66;100.00
18275;BME280;19470;49.322;7.218;2023-02-19T08:53:22;99496.53;;;13.77;100.00
18275;BME280;19470;49.322;7.218;2023-02-19T08:55:49;99498.19;;;13.33;100.00
18275;BME280;19470;49.322;7.218;2023-02-19T08:58:15;99506.25;;;13.38;100.00
18275;BME280;19470;49.322;7.218;2023-02-19T09:00:42;99501.63;;;13.78;100.00
18275;BME280;19470;49.322;7.218;2023-02-19T09:03:08;99501.69;;;13.84;100.00
18275;BME280;19470;49.322;7.218;2023-02-19T09:05:36;99503.28;;;13.68;100.00
18275;BME280;19470;49.322;7.218;2023-02-19T09:08:03;99498.38;;;13.93;100.00
18275;BME280;19470;49.322;7.218;2023-02-19T09:10:31;99502.56;;;13.55;100.00
18275;BME280;19470;49.322;7.218;2023-02-19T09:12:57;99498.75;;;14.02;100.00
18275;BME280;19470;49.322;7.218;2023-02-19T09:15:24;99507.25;;;13.82;100.00
18275;BME280;19470;49.322;7.218;2023-02-19T09:17:50;99512.19;;;14.07;100.00
18275;BME280;19470;49.322;7.218;2023-02-19T09:20:18;99513.34;;;14.33;100.00
18275;BME280;19470;49.322;7.218;2023-02-19T09:22:44;99521.00;;;14.29;100.00
18275;BME280;19470;49.322;7.218;2023-02-19T09:25:11;99530.50;;;13.87;100.00
18275;BME280;19470;49.322;7.218;2023-02-19T09:27:39;99525.44;;;14.41;100.00
18275;BME280;19470;49.322;7.218;2023-02-19T09:30:06;99527.13;;;14.30;100.00
18275;BME280;19470;49.322;7.218;2023-02-19T09:32:33;99526.16;;;13.97;100.00
18275;BME280;19470;49.322;7.218;2023-02-19T09:34:59;99522.25;;;14.22;100.00
18275;BME280;19470;49.322;7.218;2023-02-19T09:37:26;99531.41;;;14.48;100.00
18275;BME280;19470;49.322;7.218;2023-02-19T09:39:53;99537.41;;;14.55;100.00
18275;BME280;19470;49.322;7.218;2023-02-19T09:42:21;99534.19;;;14.19;100.00
18275;BME280;19470;49.322;7.218;2023-02-19T09:44:51;99543.41;;;14.12;100.00
18275;BME280;19470;49.322;7.218;2023-02-19T09:47:21;99539.25;;;14.38;100.00
18275;BME280;19470;49.322;7.218;2023-02-19T09:49:51;99545.28;;;13.94;100.00
18275;BME280;19470;49.322;7.218;2023-02-19T09:52:24;99542.75;;;14.21;100.00
18275;BME280;19470;49.322;7.218;2023-02-19T09:54:56;99555.03;;;13.89;100.00
18275;BME280;19470;49.322;7.218;2023-02-19T09:57:25;99558.59;;;13.49;100.00
18275;BME280;19470;49.322;7.218;2023-02-19T10:00:00;99568.50;;;14.32;100.00
18275;BME280;19470;49.322;7.218;2023-02-19T10:02:27;99570.34;;;14.49;100.00
18275;BME280;19470;49.322;7.218;2023-02-19T10:04:56;99573.59;;;14.51;100.00
18275;BME280;19470;49.322;7.218;2023-02-19T10:07:26;99569.66;;;14.75;100.00
18275;BME280;19470;49.322;7.218;2023-02-19T10:09:56;99567.78;;;14.54;100.00
18275;BME280;19470;49.322;7.218;2023-02-19T10:12:26;99562.44;;;14.37;100.00
18275;BME280;19470;49.322;7.218;2023-02-19T10:14:59;99564.47;;;13.79;100.00
18275;BME280;19470;49.322;7.218;2023-02-19T10:17:29;99560.81;;;14.53;100.00
18275;BME280;19470;49.322;7.218;2023-02-19T10:19:59;99569.72;;;14.08;100.00
18275;BME280;19470;49.322;7.218;2023-02-19T10:22:28;99572.59;;;14.57;100.00
18275;BME280;19470;49.322;7.218;2023-02-19T10:24:55;99580.72;;;14.12;100.00
18275;BME280;19470;49.322;7.218;2023-02-19T10:27:25;99579.72;;;13.84;100.00
18275;BME280;19470;49.322;7.218;2023-02-19T10:29:51;99587.69;;;14.35;100.00
18275;BME280;19470;49.322;7.218;2023-02-19T10:32:20;99586.00;;;14.28;100.00
18275;BME280;19470;49.322;7.218;2023-02-19T10:35:07;99593.69;;;14.42;100.00
18275;BME280;19470;49.322;7.218;2023-02-19T10:37:35;99602.16;;;14.05;100.00
18275;BME280;19470;49.322;7.218;2023-02-19T10:40:12;99597.38;;;13.90;100.00
18275;BME280;19470;49.322;7.218;2023-02-19T10:42:44;99599.06;;;13.79;100.00
18275;BME280;19470;49.322;7.218;2023-02-19T10:45:16;99594.00;;;14.28;100.00
18275;BME280;19470;49.322;7.218;2023-02-19T10:47:46;99593.94;;;14.23;100.00
18275;BME280;19470;49.322;7.218;2023-02-19T10:50:21;99595.31;;;14.26;100.00
18275;BME280;19470;49.322;7.218;2023-02-19T10:52:52;99596.00;;;13.71;100.00
18275;BME280;19470;49.322;7.218;2023-02-19T10:55:31;99591.50;;;14.05;100.00
18275;BME280;19470;49.322;7.218;2023-02-19T10:58:19;99579.22;;;14.38;100.00
18275;BME280;19470;49.322;7.218;2023-02-19T11:00:46;99582.66;;;14.16;100.00
18275;BME280;19470;49.322;7.218;2023-02-19T11:03:18;99566.66;;;14.16;100.00
18275;BME280;19470;49.322;7.218;2023-02-19T11:05:52;99560.97;;;15.07;100.00
18275;BME280;19470;49.322;7.218;2023-02-19T11:08:21;99572.25;;;14.70;100.00
18275;BME280;19470;49.322;7.218;2023-02-19T11:10:49;99570.47;;;15.20;100.00
18275;BME280;19470;49.322;7.218;2023-02-19T11:16:44;99593.06;;;15.12;100.00
18275;BME280;19470;49.322;7.218;2023-02-19T11:19:26;99610.44;;;14.54;100.00
18275;BME280;19470;49.322;7.218;2023-02-19T11:25:19;99594.97;;;14.95;96.80
18275;BME280;19470;49.322;7.218;2023-02-19T11:30:38;99589.00;;;15.31;92.82
18275;BME280;19470;49.322;7.218;2023-02-19T11:36:30;99580.44;;;15.29;94.10
18275;BME280;19470;49.322;7.218;2023-02-19T11:38:59;99593.53;;;15.09;93.87
18275;BME280;19470;49.322;7.218;2023-02-19T11:42:17;99596.09;;;14.99;94.33
18275;BME280;19470;49.322;7.218;2023-02-19T11:44:59;99590.66;;;16.61;86.39
18275;BME280;19470;49.322;7.218;2023-02-19T11:51:04;99587.41;;;15.84;91.29
18275;BME280;19470;49.322;7.218;2023-02-19T11:53:41;99604.06;;;15.65;89.42
18275;BME280;19470;49.322;7.218;2023-02-19T11:56:15;99602.84;;;15.77;89.96
18275;BME280;19470;49.322;7.218;2023-02-19T11:58:56;99626.66;;;15.13;92.22
18275;BME280;19470;49.322;7.218;2023-02-19T12:01:34;99604.31;;;14.75;93.44
18275;BME280;19470;49.322;7.218;2023-02-19T12:04:25;99598.50;;;15.44;90.23
18275;BME280;19470;49.322;7.218;2023-02-19T12:07:03;99606.06;;;15.08;93.01
18275;BME280;19470;49.322;7.218;2023-02-19T12:09:44;99604.16;;;15.04;94.40
18275;BME280;19470;49.322;7.218;2023-02-19T12:12:23;99601.75;;;14.47;96.19
18275;BME280;19470;49.322;7.218;2023-02-19T12:15:15;99594.75;;;15.45;91.92
18275;BME280;19470;49.322;7.218;2023-02-19T12:17:54;99585.06;;;14.51;97.24
18275;BME280;19470;49.322;7.218;2023-02-19T12:20:29;99590.59;;;14.33;97.96
18275;BME280;19470;49.322;7.218;2023-02-19T12:23:14;99609.03;;;14.51;96.55
18275;BME280;19470;49.322;7.218;2023-02-19T12:25:54;99599.66;;;15.31;90.57
18275;BME280;19470;49.322;7.218;2023-02-19T12:28:35;99603.28;;;15.20;91.67
18275;BME280;19470;49.322;7.218;2023-02-19T12:31:37;99611.28;;;15.20;91.30
18275;BME280;19470;49.322;7.218;2023-02-19T12:34:25;99611.41;;;15.79;88.61
18275;BME280;19470;49.322;7.218;2023-02-19T12:37:08;99613.94;;;15.64;87.20
18275;BME280;19470;49.322;7.218;2023-02-19T12:39:44;99610.84;;;15.28;90.33
18275;BME280;19470;49.322;7.218;2023-02-19T12:42:22;99617.72;;;14.80;91.58
18275;BME280;19470;49.322;7.218;2023-02-19T12:44:56;99607.81;;;14.59;95.93
18275;BME280;19470;49.322;7.218;2023-02-19T12:47:30;99621.41;;;14.96;91.42
18275;BME280;19470;49.322;7.218;2023-02-19T12:50:02;99598.53;;;15.49;88.61
18275;BME280;19470;49.322;7.218;2023-02-19T12:52:35;99608.63;;;15.20;89.11
18275;BME280;19470;49.322;7.218;2023-02-19T12:55:18;99606.13;;;15.36;88.98
18275;BME280;19470;49.322;7.218;2023-02-19T12:57:48;99611.44;;;15.84;86.68
18275;BME280;19470;49.322;7.218;2023-02-19T13:00:26;99609.81;;;15.78;88.33
18275;BME280;19470;49.322;7.218;2023-02-19T13:02:59;99610.59;;;15.79;87.58
18275;BME280;19470;49.322;7.218;2023-02-19T13:05:36;99610.28;;;15.26;90.57
18275;BME280;19470;49.322;7.218;2023-02-19T13:08:10;99604.31;;;15.19;91.14
18275;BME280;19470;49.322;7.218;2023-02-19T13:10:42;99629.44;;;14.79;92.86
18275;BME280;19470;49.322;7.218;2023-02-19T13:13:14;99621.81;;;15.10;89.76
18275;BME280;19470;49.322;7.218;2023-02-19T13:15:42;99602.47;;;14.25;97.79
18275;BME280;19470;49.322;7.218;2023-02-19T13:18:13;99603.31;;;15.69;88.34
18275;BME280;19470;49.322;7.218;2023-02-19T13:20:42;99599.72;;;15.15;90.03
18275;BME280;19470;49.322;7.218;2023-02-19T13:23:14;99602.31;;;14.49;93.55
18275;BME280;19470;49.322;7.218;2023-02-19T13:26:12;99590.56;;;15.76;87.24
18275;BME280;19470;49.322;7.218;2023-02-19T13:28:54;99585.38;;;15.16;91.98
18275;BME280;19470;49.322;7.218;2023-02-19T13:31:38;99589.13;;;14.98;90.66
18275;BME280;19470;49.322;7.218;2023-02-19T13:34:18;99578.09;;;15.11;89.72
18275;BME280;19470;49.322;7.218;2023-02-19T13:36:48;99577.72;;;15.24;86.48